Aeroporto :
LOGIN :

Iscrizione | Disclaimer

   EN    FR    IT 

 










Sommario :    VFR   VFR Marginale   IFR   IFR Intensivo   IFR Molto Intensivo
Visibilità : 
Base nubi : 
>= 8 km
>= 3000ft
5 / 8 km
1000 / 3000 ft
1500m / 5 km
500 / 1000 ft
800 / 1500m
200 / 500 ft
< 800m
< 200 ft
Simboli :   Temporali  Nebbia  Neve Forte  Precipitazioni Forti  Vento > 20 kt
SIGMETs :   Varie  Temporali  Ghiacco  Turbolenza  Onda orograficha  Ceneri Vulcaniche







- Altitudine del aeroporto : 374 ft
- Codice IATA : LIS


LPPT - Lisboa Portela

ULTIMO METAR :
  • 262330Z 28003KT 190V330 9999 FEW012 15/14 Q1014

METARs OBSOLETI :
  • 262300Z 32006KT 280V350 9999 FEW012 16/14 Q1014
  • 262230Z 30004KT 280V340 9999 FEW015 16/14 Q1014
  • 262200Z 32004KT 9999 FEW015 16/14 Q1014
  • 262130Z 32004KT 280V350 CAVOK 16/14 Q1014
  • 262100Z 32005KT CAVOK 16/14 Q1014
  • 262030Z 35005KT CAVOK 16/14 Q1014

TAF TAF LPPT
Valido dal 27 a 00 ore il 28 a 06 ore UTC


262300Z 2700/2806 32005KT 9999 FEW012
TEMPO 2702/2708 BKN008
BECMG 2708/2710 33010KT SCT020
BECMG 2714/2716 33015KT
BECMG 2720/2722 33008KT SCT012
Nessun NOTAM noto per questo aeroporto.



MetMap, La meteo Aeronautica in un colpo d'occhio ! - Copyright ORBIFLY Dicembre 2007 - Disclaimer

ORBIFLY MET'MAP TEAM :

Programmazione e sviluppo : Alexandra Zaïnal
Concezione e sviluppo : Baudouin d'Aumeries
Co-Programmazione e sviluppo : Marc-Olivier Méhu
Supporto tecnico e logistico : Manuel Goepfert
Aiuto per la traduzione : Arnaldo La Scala

Contatto : metmap@orbifly.com




FONTI E CREDITI :

   NOAA